createdAt,value
2022-11-15T00:01:29.534Z,95599.22
2022-11-15T00:04:15.375Z,95607.38
2022-11-15T00:07:01.039Z,95606.09
2022-11-15T00:09:46.548Z,95602.81
2022-11-15T00:12:32.390Z,95596.09
2022-11-15T00:15:17.929Z,95601.56
2022-11-15T00:18:04.621Z,95581.50
2022-11-15T00:20:50.503Z,95601.50
2022-11-15T00:23:36.954Z,95595.41
2022-11-15T00:26:22.327Z,95581.03
2022-11-15T00:29:08.328Z,95592.00
2022-11-15T00:31:53.862Z,95588.94
2022-11-15T00:34:39.263Z,95584.84
2022-11-15T00:37:25.018Z,95572.88
2022-11-15T00:40:11.411Z,95573.94
2022-11-15T00:42:57.315Z,95574.75
2022-11-15T00:45:42.680Z,95577.31
2022-11-15T00:48:28.314Z,95565.44
2022-11-15T00:51:13.805Z,95555.13
2022-11-15T00:53:59.614Z,95572.09
2022-11-15T00:56:45.119Z,95570.00
2022-11-15T00:59:30.697Z,95562.34
2022-11-15T01:02:16.417Z,95574.34
2022-11-15T01:05:02.123Z,95560.84
2022-11-15T01:07:47.611Z,95572.09
2022-11-15T01:10:33.149Z,95563.28
2022-11-15T01:13:18.498Z,95548.38
2022-11-15T01:16:12.046Z,95574.09
2022-11-15T01:18:57.684Z,95570.22
2022-11-15T01:21:43.127Z,95561.59
2022-11-15T01:24:28.438Z,95558.94
2022-11-15T01:27:14.200Z,95560.72
2022-11-15T01:29:59.953Z,95551.97
2022-11-15T01:32:45.190Z,95548.75
2022-11-15T01:35:30.070Z,95556.31
2022-11-15T01:38:15.933Z,95554.03
2022-11-15T01:41:01.759Z,95561.34
2022-11-15T01:43:50.434Z,95542.91
2022-11-15T01:46:37.175Z,95554.44
2022-11-15T01:49:24.646Z,95551.06
2022-11-15T01:52:18.964Z,95558.44
2022-11-15T01:55:07.461Z,95564.06
2022-11-15T01:57:56.251Z,95555.28
2022-11-15T02:00:42.021Z,95553.66
2022-11-15T02:03:36.847Z,95536.47
2022-11-15T02:06:23.040Z,95553.25
2022-11-15T02:09:08.803Z,95541.84
2022-11-15T02:11:56.268Z,95551.88
2022-11-15T02:14:44.052Z,95545.09
2022-11-15T02:17:44.716Z,95550.19
2022-11-15T02:20:36.014Z,95546.97
2022-11-15T02:23:42.800Z,95556.47
2022-11-15T02:26:59.299Z,95555.38
2022-11-15T02:29:44.584Z,95544.59
2022-11-15T02:33:02.525Z,95558.59
2022-11-15T02:35:59.465Z,95546.78
2022-11-15T02:39:01.152Z,95540.22
2022-11-15T02:41:57.920Z,95534.78
2022-11-15T02:44:47.242Z,95549.88
2022-11-15T02:47:35.283Z,95548.41
2022-11-15T02:50:25.721Z,95540.41
2022-11-15T02:53:11.476Z,95532.06
2022-11-15T02:55:58.493Z,95536.31
2022-11-15T02:59:06.384Z,95554.88
2022-11-15T03:02:04.226Z,95546.97
2022-11-15T03:05:03.995Z,95552.88
2022-11-15T03:08:03.504Z,95557.22
2022-11-15T03:11:15.775Z,95554.19
2022-11-15T03:14:04.253Z,95551.25
2022-11-15T03:16:56.148Z,95552.72
2022-11-15T03:19:44.904Z,95544.97
2022-11-15T03:22:43.606Z,95540.53
2022-11-15T03:25:31.016Z,95542.53
2022-11-15T03:28:23.413Z,95537.66
2022-11-15T03:31:29.842Z,95536.16
2022-11-15T03:34:45.137Z,95539.34
2022-11-15T03:37:45.259Z,95521.81
2022-11-15T03:40:38.101Z,95519.59
2022-11-15T03:43:45.584Z,95524.13
2022-11-15T03:46:41.126Z,95518.22
2022-11-15T03:49:32.211Z,95495.66
2022-11-15T03:52:22.918Z,95519.53
2022-11-15T03:55:11.767Z,95515.03
2022-11-15T03:58:00.656Z,95507.03
2022-11-15T04:00:45.966Z,95515.78
2022-11-15T04:03:31.868Z,95515.03
2022-11-15T04:06:17.358Z,95479.22
2022-11-15T04:09:02.815Z,95509.38
2022-11-15T04:11:48.772Z,95471.84
2022-11-15T04:14:34.240Z,95505.84
2022-11-15T04:17:19.927Z,95510.63
2022-11-15T04:20:30.446Z,95504.91
2022-11-15T04:23:36.978Z,95506.91
2022-11-15T04:26:24.798Z,95496.13
2022-11-15T04:29:28.848Z,95490.53
2022-11-15T04:32:14.347Z,95494.16
2022-11-15T04:35:00.044Z,95496.44
2022-11-15T04:37:49.255Z,95490.91
2022-11-15T04:40:35.957Z,95493.03
2022-11-15T04:43:21.866Z,95495.34
2022-11-15T04:46:07.432Z,95498.81
2022-11-15T04:48:58.225Z,95498.06
2022-11-15T04:51:44.563Z,95462.75
2022-11-15T04:54:30.165Z,95495.56
2022-11-15T04:57:15.992Z,95491.91
2022-11-15T05:00:01.696Z,95491.91
2022-11-15T05:03:05.376Z,95500.88
2022-11-15T05:05:50.876Z,95509.06
2022-11-15T05:08:37.571Z,95503.97
2022-11-15T05:11:23.732Z,95507.09
2022-11-15T05:14:09.273Z,95508.28
2022-11-15T05:16:54.678Z,95487.00
2022-11-15T05:19:40.957Z,95488.06
2022-11-15T05:22:26.398Z,95502.00
2022-11-15T05:25:11.900Z,95496.72
2022-11-15T05:27:57.342Z,95495.41
2022-11-15T05:30:43.132Z,95507.50
2022-11-15T05:33:29.078Z,95498.41
2022-11-15T05:36:38.887Z,95504.16
2022-11-15T05:39:24.608Z,95504.59
2022-11-15T05:42:16.208Z,95491.72
2022-11-15T05:45:06.530Z,95493.03
2022-11-15T05:47:53.589Z,95502.59
2022-11-15T05:50:44.153Z,95495.72
2022-11-15T05:53:30.999Z,95499.78
2022-11-15T05:56:17.229Z,95490.00
2022-11-15T05:59:04.035Z,95504.31
2022-11-15T06:01:50.081Z,95509.84
2022-11-15T06:04:35.611Z,95505.38
2022-11-15T06:07:21.308Z,95508.13
2022-11-15T06:10:08.804Z,95508.34
2022-11-15T06:13:02.261Z,95480.19
2022-11-15T06:15:47.768Z,95512.81
2022-11-15T06:18:34.781Z,95513.50
2022-11-15T06:21:20.173Z,95524.09
2022-11-15T06:24:06.863Z,95499.50
2022-11-15T06:26:52.691Z,95505.66
2022-11-15T06:29:38.279Z,95518.94
2022-11-15T06:32:24.192Z,95501.81
2022-11-15T06:35:10.007Z,95504.84
2022-11-15T06:37:55.740Z,95505.66
2022-11-15T06:40:41.066Z,95505.66
2022-11-15T06:43:26.759Z,95510.41
2022-11-15T06:46:12.596Z,95468.44
2022-11-15T06:48:57.866Z,95505.03
2022-11-15T06:51:43.446Z,95493.09
2022-11-15T06:54:29.349Z,95494.19
2022-11-15T06:57:14.809Z,95499.28
2022-11-15T07:00:00.230Z,95510.50
2022-11-15T07:02:45.771Z,95517.41
2022-11-15T07:05:31.553Z,95509.34
2022-11-15T07:08:17.277Z,95508.13
2022-11-15T07:11:06.639Z,95506.56
2022-11-15T07:13:52.319Z,95491.34
2022-11-15T07:16:38.498Z,95497.78
2022-11-15T07:19:24.181Z,95486.63
2022-11-15T07:22:09.817Z,95493.81
2022-11-15T07:24:55.150Z,95468.84
2022-11-15T07:27:41.294Z,95489.75
2022-11-15T07:30:28.415Z,95504.22
2022-11-15T07:33:13.796Z,95439.78
2022-11-15T07:36:06.129Z,95497.44
2022-11-15T07:38:51.386Z,95495.41
2022-11-15T07:41:47.371Z,95464.88
2022-11-15T07:44:33.073Z,95477.53
2022-11-15T07:47:18.590Z,95480.66
2022-11-15T07:50:04.405Z,95493.69
2022-11-15T07:52:54.676Z,95496.09
2022-11-15T07:55:42.150Z,95485.84
2022-11-15T07:58:27.930Z,95476.34
2022-11-15T08:01:14.537Z,95496.34
2022-11-15T08:04:00.545Z,95467.25
2022-11-15T08:06:46.043Z,95487.81
2022-11-15T08:09:31.769Z,95445.69
2022-11-15T08:12:17.395Z,95487.91
2022-11-15T08:15:04.034Z,95477.31
2022-11-15T08:18:05.172Z,95488.91
2022-11-15T08:20:50.785Z,95481.41
2022-11-15T08:23:36.428Z,95487.94
2022-11-15T08:26:21.788Z,95480.34
2022-11-15T08:29:09.782Z,95479.13
2022-11-15T08:31:59.204Z,95480.50
2022-11-15T08:34:45.365Z,95481.75
2022-11-15T08:37:31.114Z,95479.91
2022-11-15T08:40:16.925Z,95474.41
2022-11-15T08:43:04.192Z,95464.25
2022-11-15T08:45:50.048Z,95444.88
2022-11-15T08:48:35.517Z,95457.16
2022-11-15T08:51:23.894Z,95463.25
2022-11-15T08:54:09.874Z,95466.84
2022-11-15T08:56:55.666Z,95473.41
2022-11-15T08:59:41.248Z,95460.22
2022-11-15T09:02:27.272Z,95457.34
2022-11-15T09:05:12.856Z,95449.44
2022-11-15T09:07:58.609Z,95452.50
2022-11-15T09:10:44.061Z,95447.41
2022-11-15T09:13:29.555Z,95424.19
2022-11-15T09:16:16.317Z,95433.38
2022-11-15T09:19:02.079Z,95433.38
2022-11-15T09:21:47.781Z,95436.84
2022-11-15T09:24:33.528Z,95417.47
2022-11-15T09:27:19.559Z,95421.78
2022-11-15T09:30:06.294Z,95417.50
2022-11-15T09:32:52.049Z,95428.28
2022-11-15T09:35:37.827Z,95415.66
2022-11-15T09:38:23.098Z,95396.94
2022-11-15T09:41:14.995Z,95400.59
2022-11-15T09:44:12.337Z,95407.91
2022-11-15T09:47:06.443Z,95403.22
2022-11-15T09:49:59.535Z,95386.69
2022-11-15T09:52:37.098Z,95387.34
2022-11-15T09:55:07.027Z,95344.75
2022-11-15T09:57:45.736Z,95382.56
2022-11-15T10:00:46.644Z,95366.69
2022-11-15T10:03:14.753Z,95325.91
2022-11-15T10:05:51.278Z,95369.59
2022-11-15T10:08:51.276Z,95370.50
2022-11-15T10:11:37.661Z,95367.88
2022-11-15T10:14:22.223Z,95353.78
2022-11-15T10:17:07.231Z,95346.19
2022-11-15T10:19:43.795Z,95356.28
2022-11-15T10:22:30.518Z,95327.53
2022-11-15T10:25:27.920Z,95349.81
2022-11-15T10:28:07.691Z,95341.66
2022-11-15T10:31:02.726Z,95327.78
2022-11-15T10:33:37.512Z,95324.28
2022-11-15T10:36:09.764Z,95321.25
2022-11-15T10:38:49.142Z,95311.06
2022-11-15T10:41:23.665Z,95304.72
2022-11-15T10:44:12.046Z,95305.44
2022-11-15T10:46:49.107Z,95306.44
2022-11-15T10:49:22.088Z,95297.38
2022-11-15T10:51:52.862Z,95297.34
2022-11-15T10:54:28.982Z,95281.75
2022-11-15T10:57:00.004Z,95290.81
2022-11-15T10:59:38.981Z,95285.44
2022-11-15T11:02:24.323Z,95279.63
2022-11-15T11:04:52.405Z,95236.75
2022-11-15T11:07:25.365Z,95259.22
2022-11-15T11:10:49.846Z,95258.41
2022-11-15T11:13:24.709Z,95262.47
2022-11-15T11:16:15.097Z,95262.41
2022-11-15T11:18:50.723Z,95253.81
2022-11-15T11:21:32.951Z,95242.09
2022-11-15T11:24:15.744Z,95240.09
2022-11-15T11:27:19.758Z,95240.63
2022-11-15T11:30:17.222Z,95234.91
2022-11-15T11:33:17.346Z,95232.03
2022-11-15T11:36:02.896Z,95221.03
2022-11-15T11:38:51.694Z,95206.00
2022-11-15T11:41:45.290Z,95206.00
2022-11-15T11:44:26.220Z,95184.16
2022-11-15T11:46:59.126Z,95196.19
2022-11-15T11:49:37.135Z,95160.41
2022-11-15T11:52:13.265Z,95198.28
2022-11-15T11:54:58.681Z,95189.78
2022-11-15T11:57:40.733Z,95187.88
2022-11-15T12:00:21.468Z,95183.69
2022-11-15T12:02:58.879Z,95150.56
2022-11-15T12:05:37.865Z,95174.22
2022-11-15T12:08:22.897Z,95144.50
2022-11-15T12:10:58.871Z,95162.03
2022-11-15T12:13:30.146Z,95171.41
2022-11-15T12:16:18.555Z,95161.91
2022-11-15T12:18:50.761Z,95156.50
2022-11-15T12:21:28.715Z,95151.56
2022-11-15T12:24:05.397Z,95144.63
2022-11-15T12:26:49.194Z,95138.06
2022-11-15T12:29:24.992Z,95138.56
2022-11-15T12:31:57.511Z,95134.53
2022-11-15T12:34:36.440Z,95127.59
2022-11-15T12:37:45.462Z,95129.94
2022-11-15T12:40:21.751Z,95128.78
2022-11-15T12:43:32.086Z,95124.28
2022-11-15T12:46:04.888Z,95116.88
2022-11-15T12:48:37.783Z,95115.44
2022-11-15T12:51:05.443Z,95115.66
2022-11-15T12:53:34.328Z,95109.53
2022-11-15T12:56:07.566Z,95120.16
2022-11-15T12:58:53.439Z,95100.63
2022-11-15T13:01:36.326Z,95102.16
2022-11-15T13:04:22.410Z,95100.09
2022-11-15T13:06:51.067Z,95104.69
2022-11-15T13:09:30.495Z,95106.91
2022-11-15T13:11:59.584Z,95085.16
2022-11-15T13:14:38.760Z,95093.28
2022-11-15T13:17:38.760Z,95066.06
2022-11-15T13:20:09.040Z,95078.69
2022-11-15T13:23:00.566Z,95082.03
2022-11-15T13:25:36.942Z,95082.16
2022-11-15T13:28:10.937Z,95073.16
2022-11-15T13:30:38.926Z,95057.56
2022-11-15T13:33:17.607Z,95067.78
2022-11-15T13:35:49.079Z,95065.00
2022-11-15T13:38:25.230Z,95062.91
2022-11-15T13:40:52.395Z,95068.22
2022-11-15T13:43:22.391Z,95072.59
2022-11-15T13:46:10.630Z,95073.91
2022-11-15T13:48:38.730Z,95065.00
2022-11-15T13:51:20.718Z,95045.56
2022-11-15T13:53:54.547Z,95058.78
2022-11-15T13:56:22.297Z,95054.47
2022-11-15T13:58:49.699Z,95063.16
2022-11-15T14:01:21.000Z,95027.50
2022-11-15T14:03:56.627Z,95035.75
2022-11-15T14:06:26.076Z,95048.59
2022-11-15T14:09:04.597Z,95058.88
2022-11-15T14:11:32.099Z,95050.78
2022-11-15T14:14:14.067Z,95055.41
2022-11-15T14:16:49.768Z,95049.41
2022-11-15T14:19:22.772Z,95052.41
2022-11-15T14:22:14.903Z,95049.63
2022-11-15T14:24:47.470Z,95043.25
2022-11-15T14:27:33.425Z,95038.25
2022-11-15T14:30:01.063Z,95035.16
2022-11-15T14:32:31.215Z,95052.63
2022-11-15T14:35:03.161Z,95051.69
2022-11-15T14:37:35.125Z,95049.81
2022-11-15T14:40:05.307Z,95040.13
2022-11-15T14:42:32.884Z,95035.78
2022-11-15T14:44:59.876Z,95051.19
2022-11-15T14:47:26.958Z,95048.53
2022-11-15T14:49:53.804Z,95044.56
2022-11-15T14:52:36.651Z,95062.78
2022-11-15T14:55:12.911Z,95049.72
2022-11-15T14:57:40.319Z,95049.69
2022-11-15T15:00:09.947Z,95051.88
2022-11-15T15:02:41.666Z,95054.66
2022-11-15T15:05:20.249Z,95043.88
2022-11-15T15:07:47.931Z,95060.38
2022-11-15T15:13:03.787Z,94996.00
2022-11-15T15:15:36.889Z,95042.31
2022-11-15T15:18:05.876Z,95039.88
2022-11-15T15:20:33.697Z,95041.88
2022-11-15T15:23:00.847Z,95033.78
2022-11-15T15:25:35.962Z,95042.69
2022-11-15T15:28:04.286Z,95034.56
2022-11-15T15:30:31.844Z,95037.00
2022-11-15T15:32:58.943Z,95001.00
2022-11-15T15:35:30.520Z,95030.41
2022-11-15T15:37:57.834Z,95024.28
2022-11-15T15:40:26.485Z,95035.13
2022-11-15T15:42:53.743Z,95040.22
2022-11-15T15:45:22.038Z,95034.63
2022-11-15T15:47:50.557Z,94980.91
2022-11-15T15:50:47.021Z,95030.78
2022-11-15T15:53:14.630Z,95038.16
2022-11-15T15:55:41.888Z,95027.88
2022-11-15T15:58:09.407Z,95028.97
2022-11-15T16:00:36.961Z,95029.06
2022-11-15T16:03:04.318Z,95024.03
2022-11-15T16:05:31.362Z,95036.25
2022-11-15T16:07:58.397Z,95029.44
2022-11-15T16:10:31.072Z,94998.28
2022-11-15T16:12:58.908Z,95033.53
2022-11-15T16:15:30.690Z,95030.38
2022-11-15T16:18:00.633Z,95030.59
2022-11-15T16:20:35.278Z,95045.31
2022-11-15T16:23:08.655Z,95038.06
2022-11-15T16:25:56.964Z,95042.88
2022-11-15T16:28:29.681Z,95018.72
2022-11-15T16:31:07.242Z,95039.59
2022-11-15T16:33:34.652Z,95041.44
2022-11-15T16:36:02.480Z,95048.56
2022-11-15T16:38:29.688Z,95053.50
2022-11-15T16:40:56.733Z,95045.78
2022-11-15T16:43:23.992Z,95046.81
2022-11-15T16:45:51.642Z,95041.13
2022-11-15T16:48:28.776Z,95040.97
2022-11-15T16:50:59.618Z,95036.69
2022-11-15T16:53:27.820Z,95032.63
2022-11-15T16:55:58.120Z,95018.22
2022-11-15T16:58:25.435Z,95026.16
2022-11-15T17:00:54.027Z,95027.41
2022-11-15T17:03:22.133Z,95023.78
2022-11-15T17:05:49.720Z,95005.91
2022-11-15T17:08:16.842Z,95012.16
2022-11-15T17:10:44.294Z,95007.53
2022-11-15T17:13:14.473Z,95015.53
2022-11-15T17:15:41.565Z,95005.22
2022-11-15T17:18:13.118Z,94993.84
2022-11-15T17:20:40.968Z,94999.75
2022-11-15T17:23:14.563Z,94997.31
2022-11-15T17:25:41.779Z,95001.00
2022-11-15T17:28:08.722Z,95006.88
2022-11-15T17:30:35.956Z,94991.72
2022-11-15T17:33:02.994Z,95004.31
2022-11-15T17:35:29.903Z,94996.41
2022-11-15T17:37:56.851Z,94981.25
2022-11-15T17:43:08.030Z,94994.28
2022-11-15T17:45:35.237Z,94998.75
2022-11-15T17:48:02.357Z,94989.16
2022-11-15T17:50:29.422Z,94993.81
2022-11-15T17:52:57.364Z,94998.06
2022-11-15T17:55:24.226Z,95001.19
2022-11-15T17:57:51.270Z,94995.91
2022-11-15T18:00:20.940Z,94988.56
2022-11-15T18:02:47.947Z,94979.25
2022-11-15T18:05:14.895Z,94999.59
2022-11-15T18:07:41.732Z,94985.97
2022-11-15T18:10:10.415Z,94999.59
2022-11-15T18:12:37.553Z,94981.94
2022-11-15T18:15:05.007Z,94974.00
2022-11-15T18:17:32.169Z,94945.03
2022-11-15T18:19:59.279Z,94988.25
2022-11-15T18:22:26.339Z,94975.44
2022-11-15T18:24:53.462Z,94982.75
2022-11-15T18:27:20.473Z,94976.72
2022-11-15T18:29:47.291Z,94959.63
2022-11-15T18:32:17.877Z,94968.56
2022-11-15T18:34:44.842Z,94963.25
2022-11-15T18:37:11.963Z,94962.44
2022-11-15T18:39:38.877Z,94964.84
2022-11-15T18:42:06.038Z,94970.22
2022-11-15T18:44:32.964Z,94962.28
2022-11-15T18:47:00.048Z,94972.03
2022-11-15T18:49:27.049Z,94924.47
2022-11-15T18:51:54.013Z,94979.25
2022-11-15T18:54:20.904Z,94964.81
2022-11-15T18:56:48.098Z,94979.44
2022-11-15T18:59:16.480Z,94954.47
2022-11-15T19:01:48.756Z,94962.75
2022-11-15T19:04:18.705Z,94968.25
2022-11-15T19:06:50.537Z,94960.13
2022-11-15T19:09:19.518Z,94970.53
2022-11-15T19:11:48.175Z,94959.94
2022-11-15T19:14:17.285Z,94961.81
2022-11-15T19:16:50.183Z,94968.97
2022-11-15T19:19:19.975Z,94964.50
2022-11-15T19:21:47.550Z,94952.09
2022-11-15T19:24:14.717Z,94959.22
2022-11-15T19:26:41.834Z,94956.97
2022-11-15T19:29:14.080Z,94936.91
2022-11-15T19:31:42.163Z,94952.13
2022-11-15T19:34:09.169Z,94948.78
2022-11-15T19:36:44.027Z,94952.84
2022-11-15T19:39:14.682Z,94947.97
2022-11-15T19:41:44.156Z,94938.59
2022-11-15T19:44:12.797Z,94939.78
2022-11-15T19:46:40.750Z,94940.22
2022-11-15T19:49:10.886Z,94931.28
2022-11-15T19:51:39.128Z,94939.63
2022-11-15T19:54:08.922Z,94944.72
2022-11-15T19:56:37.349Z,94949.06
2022-11-15T19:59:05.265Z,94950.69
2022-11-15T20:01:39.291Z,94937.47
2022-11-15T20:04:08.137Z,94955.53
2022-11-15T20:06:40.601Z,94963.84
2022-11-15T20:09:08.434Z,94938.03
2022-11-15T20:11:38.192Z,94955.28
2022-11-15T20:14:06.968Z,94963.59
2022-11-15T20:16:33.943Z,94970.34
2022-11-15T20:19:00.841Z,94963.91
2022-11-15T20:21:28.209Z,94969.56
2022-11-15T20:23:56.386Z,94953.94
2022-11-15T20:26:23.653Z,94950.91
2022-11-15T20:28:50.582Z,94953.13
2022-11-15T20:31:17.992Z,94969.34
2022-11-15T20:33:45.389Z,94958.00
2022-11-15T20:36:15.728Z,94964.66
2022-11-15T20:38:44.494Z,94933.59
2022-11-15T20:41:12.641Z,94926.91
2022-11-15T20:43:43.349Z,94943.75
2022-11-15T20:46:11.982Z,94944.94
2022-11-15T20:48:39.342Z,94934.81
2022-11-15T20:51:14.483Z,94931.69
2022-11-15T20:53:43.228Z,94937.78
2022-11-15T20:56:16.394Z,94934.75
2022-11-15T20:58:45.512Z,94920.78
2022-11-15T21:01:15.124Z,94923.34
2022-11-15T21:03:42.893Z,94905.06
2022-11-15T21:06:11.288Z,94922.31
2022-11-15T21:08:57.471Z,94923.91
2022-11-15T21:11:43.672Z,94920.63
2022-11-15T21:14:11.124Z,94907.22
2022-11-15T21:16:39.060Z,94877.19
2022-11-15T21:19:07.002Z,94910.22
2022-11-15T21:21:35.701Z,94843.91
2022-11-15T21:24:06.761Z,94908.53
2022-11-15T21:26:35.045Z,94894.72
2022-11-15T21:29:03.553Z,94892.06
2022-11-15T21:31:34.635Z,94891.63
2022-11-15T21:34:07.365Z,94876.03
2022-11-15T21:36:34.703Z,94872.59
2022-11-15T21:39:01.669Z,94859.66
2022-11-15T21:41:28.601Z,94864.88
2022-11-15T21:43:59.701Z,94876.69
2022-11-15T21:46:27.126Z,94860.91
2022-11-15T21:48:54.011Z,94850.75
2022-11-15T21:51:20.942Z,94831.16
2022-11-15T21:53:48.132Z,94867.81
2022-11-15T21:56:15.903Z,94876.38
2022-11-15T21:58:42.849Z,94872.78
2022-11-15T22:01:29.901Z,94868.09
2022-11-15T22:03:57.269Z,94847.16
2022-11-15T22:06:24.634Z,94860.28
2022-11-15T22:08:51.456Z,94843.06
2022-11-15T22:11:18.572Z,94856.91
2022-11-15T22:13:45.520Z,94842.53
2022-11-15T22:16:12.494Z,94857.38
2022-11-15T22:18:39.634Z,94853.69
2022-11-15T22:21:12.723Z,94784.78
2022-11-15T22:23:41.124Z,94844.94
2022-11-15T22:26:10.378Z,94841.50
2022-11-15T22:28:37.731Z,94818.16
2022-11-15T22:31:04.931Z,94836.00
2022-11-15T22:33:33.546Z,94841.88
2022-11-15T22:36:00.759Z,94830.34
2022-11-15T22:38:28.589Z,94835.41
2022-11-15T22:40:56.561Z,94806.41
2022-11-15T22:43:27.509Z,94812.72
2022-11-15T22:45:56.092Z,94813.53
2022-11-15T22:48:28.595Z,94804.78
2022-11-15T22:50:56.492Z,94804.19
2022-11-15T22:53:24.017Z,94804.78
2022-11-15T22:55:53.993Z,94809.41
2022-11-15T22:58:22.992Z,94802.38
2022-11-15T23:00:55.893Z,94792.69
2022-11-15T23:03:24.186Z,94819.28
2022-11-15T23:05:51.749Z,94815.06
2022-11-15T23:08:19.403Z,94800.66
2022-11-15T23:11:05.145Z,94803.09
2022-11-15T23:13:33.144Z,94800.66
2022-11-15T23:16:25.902Z,94812.25
2022-11-15T23:18:58.094Z,94802.47
2022-11-15T23:21:52.231Z,94804.97
2022-11-15T23:24:20.351Z,94803.75
2022-11-15T23:26:49.080Z,94778.00
2022-11-15T23:29:19.011Z,94793.88
2022-11-15T23:32:05.071Z,94782.09
2022-11-15T23:34:35.381Z,94779.25
2022-11-15T23:37:02.277Z,94761.59
2022-11-15T23:39:29.579Z,94776.19
2022-11-15T23:41:56.563Z,94771.53
2022-11-15T23:44:24.123Z,94789.59
2022-11-15T23:46:51.221Z,94776.41
2022-11-15T23:49:18.893Z,94778.59
2022-11-15T23:51:45.780Z,94767.44
2022-11-15T23:54:12.819Z,94759.06
2022-11-15T23:56:40.633Z,94764.81
2022-11-15T23:59:07.717Z,94766.16
